Time;durP1;ratioP1;P1;durP2;ratioP2;P2;SDS_P1;SDS_P2;PMS_P1;PMS_P2;Temp;Humidity;BMP_temperature;BMP_pressure;BME280_temperature;BME280_humidity;BME280_pressure;Samples;Min_cycle;Max_cycle;Signal;HPM_P1;HPM_P2
2022/01/10 05:00:12;;;;;;;13.70;6.10;;;4.80;99.90;;;;;;5896297;23;20198;31
2022/01/10 05:02:41;;;;;;;7.82;5.50;;;4.80;99.90;;;;;;4895288;29;20222;-69
2022/01/10 05:05:08;;;;;;;6.40;5.80;;;4.80;99.90;;;;;;4896822;29;20199;-70
2022/01/10 05:07:35;;;;;;;8.65;6.13;;;4.80;99.90;;;;;;4896836;29;20588;-68
2022/01/10 05:10:02;;;;;;;7.20;5.88;;;4.80;99.90;;;;;;4896749;29;20211;-69
2022/01/10 05:12:29;;;;;;;13.52;6.30;;;4.80;99.90;;;;;;4897828;29;20231;-70
2022/01/10 05:14:55;;;;;;;15.38;6.47;;;4.80;99.90;;;;;;4897082;29;20542;-68
2022/01/10 05:17:24;;;;;;;9.25;5.28;;;4.80;99.90;;;;;;4898179;29;20241;-68
2022/01/10 05:19:52;;;;;;;7.80;5.75;;;4.80;99.90;;;;;;4897993;29;20211;-69
2022/01/10 05:22:19;;;;;;;6.88;6.05;;;4.80;99.90;;;;;;4897297;29;20632;-70
2022/01/10 05:24:45;;;;;;;8.07;6.30;;;4.80;99.90;;;;;;4897811;29;20333;-69
2022/01/10 05:27:12;;;;;;;23.15;7.60;;;4.80;99.90;;;;;;4896969;29;20214;-69
2022/01/10 05:29:39;;;;;;;10.23;5.75;;;4.80;99.90;;;;;;4897234;29;20211;-70
2022/01/10 05:32:06;;;;;;;11.20;6.50;;;4.80;99.90;;;;;;4909772;23;20669;-69
2022/01/10 05:34:33;;;;;;;8.65;5.97;;;4.80;99.90;;;;;;4896520;29;20631;-71
2022/01/10 05:37:01;;;;;;;12.13;6.32;;;4.80;99.90;;;;;;4886666;29;20268;-70
2022/01/10 05:39:28;;;;;;;10.02;6.22;;;4.80;99.90;;;;;;4899809;29;20214;-70
2022/01/10 05:41:55;;;;;;;11.35;7.00;;;4.80;99.90;;;;;;4903398;29;20243;-71
2022/01/10 05:44:22;;;;;;;14.43;6.68;;;4.80;99.90;;;;;;4887183;29;20576;-71
2022/01/10 05:46:49;;;;;;;13.27;6.95;;;4.80;99.90;;;;;;4888939;29;20209;-72
2022/01/10 05:49:19;;;;;;;17.73;7.10;;;4.80;99.90;;;;;;4871630;29;20208;-71
2022/01/10 05:51:46;;;;;;;11.43;7.50;;;4.80;99.90;;;;;;4872798;29;20295;-71
2022/01/10 05:54:14;;;;;;;19.83;9.90;;;4.80;99.90;;;;;;4877983;29;20214;-70
2022/01/10 05:56:40;;;;;;;25.85;11.52;;;4.80;99.90;;;;;;4887730;29;20208;-70
2022/01/10 05:59:07;;;;;;;29.67;11.70;;;4.70;99.90;;;;;;4878340;29;20236;-71
2022/01/10 06:01:34;;;;;;;26.02;11.98;;;4.70;99.90;;;;;;4873259;29;20204;-71
2022/01/10 06:04:00;;;;;;;20.65;10.70;;;4.60;99.90;;;;;;4882548;29;20914;-70
2022/01/10 06:06:27;;;;;;;21.13;11.93;;;4.60;99.90;;;;;;4889206;29;20215;-72
2022/01/10 06:08:54;;;;;;;32.33;12.50;;;4.60;99.90;;;;;;4886255;29;20263;-71
2022/01/10 06:11:22;;;;;;;21.75;10.10;;;4.50;99.90;;;;;;4893962;29;20691;-70
2022/01/10 06:13:48;;;;;;;36.53;12.70;;;4.50;99.90;;;;;;4877414;29;20303;-70
2022/01/10 06:16:16;;;;;;;33.28;12.15;;;4.50;99.90;;;;;;4888670;29;20206;-70
2022/01/10 06:18:43;;;;;;;24.55;11.10;;;4.50;99.90;;;;;;4875264;29;20219;-70
2022/01/10 06:21:09;;;;;;;30.88;11.00;;;4.50;99.90;;;;;;4889936;29;20256;-71
2022/01/10 06:23:36;;;;;;;25.48;10.40;;;4.50;99.90;;;;;;4886401;29;20654;-71
2022/01/10 06:26:03;;;;;;;21.85;10.45;;;4.50;99.90;;;;;;4879942;29;20207;-70
2022/01/10 06:28:31;;;;;;;15.38;10.00;;;4.50;99.90;;;;;;4896418;29;20215;-71
2022/01/10 06:30:58;;;;;;;27.55;10.40;;;4.50;99.90;;;;;;4879824;29;20208;-71
2022/01/10 06:33:24;;;;;;;24.95;10.88;;;4.50;99.90;;;;;;4886571;29;20587;-72
2022/01/10 06:35:51;;;;;;;18.23;10.52;;;4.50;99.90;;;;;;4886702;29;20212;-70
2022/01/10 06:38:18;;;;;;;14.73;9.18;;;4.50;99.90;;;;;;4886167;29;20717;-70
2022/01/10 06:40:44;;;;;;;19.60;7.55;;;4.40;99.90;;;;;;4880935;29;20208;-70
2022/01/10 06:43:11;;;;;;;12.65;7.85;;;4.40;99.90;;;;;;4877521;29;20236;-69
2022/01/10 06:45:39;;;;;;;10.57;7.05;;;4.40;99.90;;;;;;4879984;29;20657;-70
2022/01/10 06:48:06;;;;;;;11.57;7.32;;;4.30;99.90;;;;;;4888413;29;20208;-70
2022/01/10 06:50:34;;;;;;;13.93;8.05;;;4.30;99.90;;;;;;4881217;29;20208;-70
2022/01/10 06:53:02;;;;;;;11.27;7.75;;;4.20;99.90;;;;;;4876957;29;20258;-70
2022/01/10 06:55:29;;;;;;;12.95;8.07;;;4.20;99.90;;;;;;4875974;29;20208;-71
2022/01/10 06:57:56;;;;;;;13.20;8.48;;;4.20;99.90;;;;;;4868862;29;20228;-68
2022/01/10 07:00:22;;;;;;;11.35;7.97;;;4.10;99.90;;;;;;4866062;29;20219;-70
2022/01/10 07:02:51;;;;;;;12.73;7.47;;;4.10;99.90;;;;;;4885699;29;20235;-70
2022/01/10 07:05:17;;;;;;;9.18;7.60;;;4.10;99.90;;;;;;4887761;29;20294;-71
2022/01/10 07:07:45;;;;;;;11.23;8.57;;;4.10;99.90;;;;;;4885835;29;20210;-69
2022/01/10 07:10:12;;;;;;;13.88;8.40;;;4.10;99.90;;;;;;4858269;29;20212;-71
2022/01/10 07:12:39;;;;;;;9.43;8.00;;;4.10;99.90;;;;;;4884222;29;20231;-71
2022/01/10 07:15:07;;;;;;;11.40;7.75;;;4.10;99.90;;;;;;4879200;29;20262;-71
2022/01/10 07:17:33;;;;;;;11.00;7.95;;;4.10;99.90;;;;;;4895836;29;20211;-71
2022/01/10 07:20:01;;;;;;;10.07;8.45;;;4.10;99.90;;;;;;4880067;29;20298;-70
2022/01/10 07:22:28;;;;;;;10.55;8.18;;;4.10;99.90;;;;;;4882063;29;20235;-70
2022/01/10 07:24:55;;;;;;;8.90;7.88;;;4.10;99.90;;;;;;4886065;29;20692;-71
2022/01/10 07:27:22;;;;;;;11.30;8.27;;;4.10;99.90;;;;;;4895382;29;20207;-71
2022/01/10 07:29:50;;;;;;;12.40;7.32;;;4.00;99.90;;;;;;4886453;29;20573;-70
2022/01/10 07:32:17;;;;;;;12.48;9.20;;;4.00;99.90;;;;;;4885284;29;20239;-71
2022/01/10 07:34:44;;;;;;;14.93;9.27;;;4.00;99.90;;;;;;4877698;29;20215;-71
2022/01/10 07:37:12;;;;;;;11.18;7.55;;;4.00;99.90;;;;;;4880456;29;20252;-69
2022/01/10 07:39:39;;;;;;;11.02;7.85;;;4.00;99.90;;;;;;4880645;29;20227;-70
2022/01/10 07:42:06;;;;;;;14.90;8.90;;;4.00;99.90;;;;;;4896513;29;20271;-70
2022/01/10 07:44:32;;;;;;;13.30;9.93;;;4.00;99.90;;;;;;4897383;29;20775;-71
2022/01/10 07:46:59;;;;;;;16.15;10.93;;;4.00;99.90;;;;;;4894632;29;20199;-71
2022/01/10 07:49:26;;;;;;;13.43;9.35;;;4.00;99.90;;;;;;4886172;29;20236;-71
2022/01/10 07:51:57;;;;;;;17.83;11.30;;;4.10;99.90;;;;;;4893635;29;20227;-71
2022/01/10 07:54:25;;;;;;;15.98;11.35;;;4.10;99.90;;;;;;4880722;29;20310;-71
2022/01/10 07:56:52;;;;;;;14.68;11.63;;;4.10;99.90;;;;;;4880581;29;20303;-71
2022/01/10 07:59:19;;;;;;;12.55;10.70;;;4.10;99.90;;;;;;4872148;29;20715;-70
2022/01/10 08:01:47;;;;;;;15.10;12.50;;;4.10;99.90;;;;;;4882912;29;20654;-72
2022/01/10 08:04:14;;;;;;;17.17;12.10;;;4.10;99.90;;;;;;4867389;29;20931;-70
2022/01/10 08:06:41;;;;;;;17.58;12.15;;;4.20;99.90;;;;;;4876143;29;20221;-71
2022/01/10 08:09:08;;;;;;;17.35;12.63;;;4.20;99.90;;;;;;4887584;29;20204;-69
2022/01/10 08:11:36;;;;;;;19.60;14.15;;;4.20;99.90;;;;;;4879873;29;20593;-71
2022/01/10 08:14:03;;;;;;;21.60;12.75;;;4.20;99.90;;;;;;4880345;29;20216;-71
2022/01/10 08:16:30;;;;;;;19.85;13.55;;;4.20;99.90;;;;;;4878665;29;20741;-71
2022/01/10 08:18:57;;;;;;;23.35;14.90;;;4.20;99.90;;;;;;4881449;29;20238;-71
2022/01/10 08:21:23;;;;;;;21.17;15.18;;;4.10;99.90;;;;;;4878219;29;20239;-71
2022/01/10 08:23:50;;;;;;;26.33;16.02;;;4.10;99.90;;;;;;4864955;29;20284;-70
2022/01/10 08:26:17;;;;;;;22.05;16.10;;;4.10;99.90;;;;;;4880255;29;20219;-70
2022/01/10 08:28:45;;;;;;;22.77;15.05;;;4.10;99.90;;;;;;4873885;29;20200;-70
2022/01/10 08:31:11;;;;;;;25.00;16.40;;;4.10;99.90;;;;;;4861355;29;20219;-71
2022/01/10 08:33:38;;;;;;;22.70;15.35;;;4.10;99.90;;;;;;4866809;29;20241;-71
2022/01/10 08:36:05;;;;;;;22.50;14.93;;;4.10;99.90;;;;;;4861213;29;20217;-71
2022/01/10 08:38:32;;;;;;;25.25;15.15;;;4.20;99.90;;;;;;4877748;29;20250;-69
2022/01/10 08:40:59;;;;;;;27.00;15.23;;;4.10;99.90;;;;;;4879378;29;20223;-70
2022/01/10 08:43:26;;;;;;;23.33;14.82;;;4.10;99.90;;;;;;4886131;29;20228;-70
2022/01/10 08:45:54;;;;;;;22.08;13.23;;;4.20;99.90;;;;;;4878431;29;20212;-70
2022/01/10 08:48:21;;;;;;;27.50;15.50;;;4.10;99.90;;;;;;4882178;29;20241;-70
2022/01/10 08:50:48;;;;;;;27.38;16.55;;;4.10;99.90;;;;;;4873635;29;20208;-70
2022/01/10 08:53:14;;;;;;;23.63;13.60;;;4.20;99.90;;;;;;4883866;29;20235;-69
2022/01/10 08:55:41;;;;;;;24.13;14.10;;;4.20;99.90;;;;;;4887047;29;20301;-70
2022/01/10 08:58:08;;;;;;;27.75;17.15;;;4.20;99.90;;;;;;4878327;29;20207;-69
2022/01/10 09:00:35;;;;;;;20.88;14.10;;;4.20;99.90;;;;;;4897912;29;20301;-69
2022/01/10 09:03:03;;;;;;;25.17;15.32;;;4.20;99.90;;;;;;4891124;29;20231;-70
2022/01/10 09:05:32;;;;;;;28.02;13.90;;;4.20;99.90;;;;;;4877657;29;20208;-69
2022/01/10 09:08:00;;;;;;;22.38;13.98;;;4.30;99.90;;;;;;4878700;29;20234;-69
2022/01/10 09:10:27;;;;;;;21.17;14.40;;;4.30;99.90;;;;;;4895760;29;20826;-70
2022/01/10 09:12:54;;;;;;;22.15;14.68;;;4.30;99.90;;;;;;4896151;29;20228;-71
2022/01/10 09:15:21;;;;;;;20.20;14.13;;;4.40;99.90;;;;;;4879171;29;20208;-70
2022/01/10 09:17:48;;;;;;;22.23;14.63;;;4.40;99.90;;;;;;4888693;29;20212;-69
2022/01/10 09:20:16;;;;;;;23.65;14.00;;;4.40;99.90;;;;;;4869363;29;20598;-70
2022/01/10 09:22:43;;;;;;;23.98;14.52;;;4.40;99.90;;;;;;4876863;29;20224;-68
2022/01/10 09:25:10;;;;;;;24.35;14.90;;;4.50;99.90;;;;;;4878976;29;20264;-70
2022/01/10 09:27:37;;;;;;;23.63;14.82;;;4.50;99.90;;;;;;4881336;29;20268;-71
2022/01/10 09:30:04;;;;;;;22.45;12.80;;;4.50;99.90;;;;;;4859695;29;20220;-69
2022/01/10 09:32:31;;;;;;;19.55;14.48;;;4.50;99.90;;;;;;4874560;29;20252;-71
2022/01/10 09:34:57;;;;;;;18.58;14.35;;;4.50;99.90;;;;;;4878444;29;20533;-69
2022/01/10 09:37:26;;;;;;;24.05;15.25;;;4.50;99.90;;;;;;4886040;29;20215;-71
2022/01/10 09:39:52;;;;;;;20.45;13.02;;;4.60;99.90;;;;;;4870112;29;20231;-70
2022/01/10 09:42:19;;;;;;;23.63;14.77;;;4.60;99.90;;;;;;4880103;29;20595;-70
2022/01/10 09:44:46;;;;;;;25.05;16.30;;;4.70;99.90;;;;;;4877920;29;20220;-70
2022/01/10 09:47:13;;;;;;;21.50;13.40;;;4.70;99.90;;;;;;4887605;29;20259;-70
2022/01/10 09:49:39;;;;;;;18.10;13.82;;;4.70;99.90;;;;;;4880450;29;20251;-71
2022/01/10 09:52:07;;;;;;;22.05;13.98;;;4.80;99.90;;;;;;4889185;29;20239;-71
2022/01/10 09:54:35;;;;;;;23.00;14.82;;;4.80;99.90;;;;;;4882450;29;20672;-70
2022/01/10 09:57:03;;;;;;;20.08;15.32;;;4.80;99.90;;;;;;4872385;29;20207;-69
2022/01/10 09:59:33;;;;;;;21.17;14.02;;;4.90;99.90;;;;;;4870024;29;20235;-69
2022/01/10 10:02:00;;;;;;;19.52;12.98;;;4.90;99.90;;;;;;4857083;29;20267;-70
2022/01/10 10:04:27;;;;;;;19.00;13.18;;;5.00;99.90;;;;;;4859021;29;20769;-70
2022/01/10 10:06:54;;;;;;;21.75;14.15;;;5.00;99.90;;;;;;4873873;29;20215;-70
2022/01/10 10:09:23;;;;;;;21.10;13.93;;;5.00;99.90;;;;;;4882524;29;20215;-71
2022/01/10 10:11:53;;;;;;;18.75;13.05;;;5.10;99.90;;;;;;4878628;29;20211;-70
2022/01/10 10:14:23;;;;;;;48.10;36.38;;;5.10;99.90;;;;;;4867283;29;20223;-71
2022/01/10 10:16:52;;;;;;;35.72;23.38;;;5.10;99.90;;;;;;4865408;29;20323;-71
2022/01/10 10:19:22;;;;;;;25.95;15.60;;;5.10;99.90;;;;;;4871804;29;20275;-70
2022/01/10 10:21:49;;;;;;;17.20;12.68;;;5.10;99.90;;;;;;4876601;29;20237;-69
2022/01/10 10:24:16;;;;;;;18.85;13.40;;;5.10;99.90;;;;;;4874215;29;20244;-70
2022/01/10 10:26:43;;;;;;;20.38;13.93;;;5.10;99.90;;;;;;4876609;29;20738;-70
2022/01/10 10:29:13;;;;;;;20.30;13.07;;;5.10;99.90;;;;;;4876974;29;20207;-71
2022/01/10 10:31:45;;;;;;;16.48;11.95;;;5.00;99.90;;;;;;4872162;29;20204;-69
2022/01/10 10:34:17;;;;;;;17.30;12.95;;;5.00;99.90;;;;;;4872759;29;20215;-71
2022/01/10 10:36:44;;;;;;;15.48;11.57;;;4.90;99.90;;;;;;4875143;29;20215;-70
2022/01/10 10:39:13;;;;;;;19.35;12.70;;;5.00;99.90;;;;;;4878446;29;20664;-70
2022/01/10 10:41:42;;;;;;;18.58;11.40;;;5.00;99.90;;;;;;4877073;29;20208;-70
2022/01/10 10:44:08;;;;;;;19.33;13.38;;;5.10;99.90;;;;;;4875650;29;20219;-71
2022/01/10 10:46:37;;;;;;;17.80;12.13;;;5.00;99.90;;;;;;4875727;29;20651;-71
2022/01/10 10:49:04;;;;;;;32.40;24.30;;;5.00;99.90;;;;;;4871919;29;20213;-70
2022/01/10 10:51:34;;;;;;;24.65;15.20;;;5.10;99.90;;;;;;4877421;29;20215;-70
2022/01/10 10:54:05;;;;;;;30.63;21.20;;;5.20;99.90;;;;;;4865139;29;20566;-71
2022/01/10 10:56:34;;;;;;;22.38;13.32;;;5.30;99.90;;;;;;4868167;29;20212;-70
2022/01/10 10:59:01;;;;;;;20.35;14.15;;;5.30;99.90;;;;;;4869888;29;20663;-70
2022/01/10 11:01:28;;;;;;;22.15;13.40;;;5.40;99.90;;;;;;4864589;29;20547;-69
2022/01/10 11:03:56;;;;;;;20.42;13.80;;;5.30;99.90;;;;;;4865217;29;20239;-71
2022/01/10 11:06:23;;;;;;;16.40;12.45;;;5.30;99.90;;;;;;4876941;29;20553;-72
2022/01/10 11:08:50;;;;;;;21.23;13.18;;;5.30;99.90;;;;;;4863264;29;20215;-69
2022/01/10 11:11:21;;;;;;;22.20;13.90;;;5.30;99.90;;;;;;4866099;29;20212;-67
2022/01/10 11:13:48;;;;;;;19.38;13.27;;;5.30;99.90;;;;;;4874123;29;20314;-68
2022/01/10 11:16:15;;;;;;;16.25;11.23;;;5.30;99.90;;;;;;4878130;29;20361;-68
2022/01/10 11:18:42;;;;;;;23.48;13.68;;;5.30;99.90;;;;;;4876427;29;20275;-67
2022/01/10 11:21:11;;;;;;;22.42;14.48;;;5.20;99.90;;;;;;4874785;29;20266;-69
2022/01/10 11:23:43;;;;;;;19.00;12.57;;;5.20;99.90;;;;;;4861854;29;20227;-68
2022/01/10 11:26:10;;;;;;;23.45;13.82;;;5.20;99.90;;;;;;4876621;29;20200;-69
2022/01/10 11:28:47;;;;;;;17.75;13.00;;;5.20;99.90;;;;;;4870900;29;20215;-69
2022/01/10 11:31:20;;;;;;;17.27;11.60;;;5.30;99.90;;;;;;4874391;29;20287;-68
2022/01/10 11:33:47;;;;;;;14.85;12.27;;;5.40;99.90;;;;;;4864819;29;20736;-67
2022/01/10 11:36:16;;;;;;;17.88;11.77;;;5.40;99.90;;;;;;4881968;29;20534;-68
2022/01/10 11:38:45;;;;;;;15.68;11.30;;;5.50;99.90;;;;;;4876287;29;20212;-67
2022/01/10 11:41:14;;;;;;;18.40;12.13;;;5.50;99.90;;;;;;4884640;29;20210;-69
2022/01/10 11:43:52;;;;;;;16.25;11.82;;;5.50;99.90;;;;;;4874899;29;20279;-69
2022/01/10 11:46:28;;;;;;;22.30;14.50;;;5.50;99.90;;;;;;4895666;29;20554;-69
2022/01/10 11:48:59;;;;;;;25.73;14.50;;;5.50;99.90;;;;;;4879008;29;20196;-69
2022/01/10 11:51:31;;;;;;;27.23;15.98;;;5.50;99.90;;;;;;4862811;29;20200;-69
2022/01/10 11:54:10;;;;;;;21.65;14.65;;;5.40;99.90;;;;;;4865957;29;20223;-69
2022/01/10 11:56:38;;;;;;;27.50;16.45;;;5.30;99.90;;;;;;4882476;29;20215;-70
2022/01/10 11:59:27;;;;;;;24.17;15.90;;;5.30;99.90;;;;;;4871892;29;20265;-65
2022/01/10 12:01:59;;;;;;;26.92;15.48;;;5.20;99.90;;;;;;4863320;29;20302;-69
2022/01/10 12:04:27;;;;;;;26.92;17.15;;;5.20;99.90;;;;;;4882558;29;20211;-67
2022/01/10 12:06:55;;;;;;;28.83;18.02;;;5.30;99.90;;;;;;4895443;29;20736;-68
2022/01/10 12:09:22;;;;;;;26.75;16.10;;;5.20;99.90;;;;;;4894767;29;20215;-68
2022/01/10 12:11:51;;;;;;;32.28;17.23;;;5.20;99.90;;;;;;4861550;29;20213;-68
2022/01/10 12:14:19;;;;;;;32.30;16.95;;;5.20;99.90;;;;;;4861153;29;20223;-67
2022/01/10 12:16:46;;;;;;;25.58;15.98;;;5.20;99.90;;;;;;4861423;29;20208;-68
2022/01/10 12:19:13;;;;;;;26.08;14.70;;;5.10;99.90;;;;;;4875829;29;20657;-68
2022/01/10 12:21:40;;;;;;;22.92;15.10;;;5.10;99.90;;;;;;4861110;29;20231;-67
2022/01/10 12:24:08;;;;;;;29.17;16.23;;;5.10;99.90;;;;;;4860904;29;20208;-68
2022/01/10 12:26:37;;;;;;;26.50;15.68;;;5.10;99.90;;;;;;4861384;29;20224;-68
2022/01/10 12:29:05;;;;;;;26.98;15.70;;;5.10;99.90;;;;;;4878971;29;20649;-68
2022/01/10 12:31:33;;;;;;;25.25;14.82;;;5.10;99.90;;;;;;4869514;29;20228;-71
2022/01/10 12:34:01;;;;;;;26.80;16.23;;;5.10;99.90;;;;;;4860736;29;20224;-68
2022/01/10 12:36:29;;;;;;;27.08;15.90;;;5.10;99.90;;;;;;4861348;29;20217;-68
2022/01/10 12:38:59;;;;;;;26.00;15.18;;;5.10;99.90;;;;;;4860404;29;20227;-72
2022/01/10 12:41:28;;;;;;;27.40;16.98;;;5.10;99.90;;;;;;4860866;29;20325;-70
2022/01/10 12:43:56;;;;;;;29.73;16.50;;;5.10;99.90;;;;;;4866109;29;20232;-69
2022/01/10 12:46:27;;;;;;;30.27;15.27;;;5.10;99.90;;;;;;4879777;29;20219;-68
2022/01/10 12:48:54;;;;;;;26.05;15.40;;;5.20;99.90;;;;;;4878636;29;20303;-68
2022/01/10 12:51:22;;;;;;;24.73;14.75;;;5.20;99.90;;;;;;4879110;29;20212;-70
2022/01/10 12:53:51;;;;;;;28.60;16.60;;;5.20;99.90;;;;;;4878866;29;20236;-69
2022/01/10 12:56:19;;;;;;;27.83;15.63;;;5.20;99.90;;;;;;4880097;29;20219;-69
2022/01/10 12:58:47;;;;;;;27.77;15.43;;;5.10;99.90;;;;;;4882474;29;20215;-69
2022/01/10 13:01:15;;;;;;;24.10;13.98;;;5.10;99.90;;;;;;4883496;29;20228;-68
2022/01/10 13:03:48;;;;;;;25.25;13.25;;;5.10;99.90;;;;;;4879539;29;20240;-69
2022/01/10 13:06:15;;;;;;;20.40;12.88;;;5.10;99.90;;;;;;4878841;29;20215;-69
2022/01/10 13:08:42;;;;;;;24.67;15.23;;;5.10;99.90;;;;;;4878363;29;20672;-72
2022/01/10 13:11:14;;;;;;;24.15;14.52;;;5.00;99.90;;;;;;4879018;29;20211;-68
2022/01/10 13:13:44;;;;;;;27.67;15.50;;;5.00;99.90;;;;;;4879028;29;20339;-72
2022/01/10 13:16:26;;;;;;;23.75;15.35;;;5.00;99.90;;;;;;4878947;29;20444;-68
2022/01/10 13:18:58;;;;;;;26.75;14.27;;;5.00;99.90;;;;;;4866210;29;20255;-67
2022/01/10 13:21:30;;;;;;;24.52;14.75;;;5.00;99.90;;;;;;4860169;29;20319;-68
2022/01/10 13:24:11;;;;;;;23.17;15.40;;;5.00;99.90;;;;;;4858913;29;20247;-68
2022/01/10 13:26:54;;;;;;;23.08;14.07;;;5.00;99.90;;;;;;4860141;29;20216;-69
2022/01/10 13:29:35;;;;;;;24.88;15.90;;;5.00;99.90;;;;;;4860128;29;20197;-68
2022/01/10 13:32:23;;;;;;;23.88;12.90;;;4.90;99.90;;;;;;4860287;29;20240;-68
2022/01/10 13:34:52;;;;;;;21.83;13.23;;;5.00;99.90;;;;;;4860268;29;20209;-68
2022/01/10 13:37:31;;;;;;;21.35;11.90;;;4.90;99.90;;;;;;4859809;29;20690;-68
2022/01/10 13:40:06;;;;;;;22.80;14.15;;;5.00;99.90;;;;;;4859305;29;20236;-72
2022/01/10 13:42:38;;;;;;;19.92;12.75;;;5.00;99.90;;;;;;4859934;29;20240;-68
2022/01/10 13:45:05;;;;;;;27.73;13.43;;;4.90;99.90;;;;;;4859943;29;20687;-69
2022/01/10 13:50:29;;;;;;;26.40;15.40;;;4.90;99.90;;;;;;5087683;27;20535;-67
2022/01/10 13:53:04;;;;;;;27.08;15.57;;;4.90;99.90;;;;;;5068507;28;20232;-67
2022/01/10 13:55:32;;;;;;;29.25;16.55;;;4.90;99.90;;;;;;5069107;28;20209;-67
2022/01/10 13:57:59;;;;;;;30.42;17.10;;;4.80;99.90;;;;;;5082660;28;20665;-68
2022/01/10 14:00:26;;;;;;;26.80;16.58;;;4.80;99.90;;;;;;5087573;28;20206;-67
2022/01/10 14:02:54;;;;;;;26.80;17.30;;;4.80;99.90;;;;;;5086711;28;20224;-68
2022/01/10 14:05:23;;;;;;;33.38;17.45;;;4.70;99.90;;;;;;5087979;28;20201;-67
2022/01/10 14:07:51;;;;;;;30.95;16.08;;;4.70;99.90;;;;;;5086810;28;20198;-67
2022/01/10 14:10:19;;;;;;;28.67;16.23;;;4.70;99.90;;;;;;5087425;28;20220;-71
2022/01/10 14:12:45;;;;;;;25.00;16.58;;;4.70;99.90;;;;;;5088197;28;20307;-67
2022/01/10 14:15:12;;;;;;;27.73;16.35;;;4.60;99.90;;;;;;5087457;28;20219;-68
2022/01/10 14:17:39;;;;;;;26.65;15.30;;;4.70;99.90;;;;;;5087879;28;20204;-69
2022/01/10 14:20:06;;;;;;;27.75;15.93;;;4.60;99.90;;;;;;5087261;28;20614;-67
2022/01/10 14:22:33;;;;;;;24.08;16.08;;;4.60;99.90;;;;;;5086605;28;20294;-68
2022/01/10 14:25:01;;;;;;;25.20;16.08;;;4.60;99.90;;;;;;5082107;28;20658;-68
2022/01/10 14:27:30;;;;;;;24.40;14.75;;;4.60;99.90;;;;;;5087471;28;20212;-67
2022/01/10 14:29:57;;;;;;;21.35;14.73;;;4.60;99.90;;;;;;5087020;28;20228;-70
2022/01/10 14:32:24;;;;;;;22.17;15.18;;;4.60;99.90;;;;;;5087243;28;20220;-68
2022/01/10 14:34:51;;;;;;;26.30;15.93;;;4.60;99.90;;;;;;5086917;28;20204;-68
2022/01/10 14:37:18;;;;;;;27.90;16.92;;;4.60;99.90;;;;;;5086675;28;20204;-69
2022/01/10 14:39:45;;;;;;;28.75;15.23;;;4.60;99.90;;;;;;5086760;28;20207;-69
2022/01/10 14:42:13;;;;;;;28.05;16.05;;;4.60;99.90;;;;;;5076921;28;20217;-69
2022/01/10 14:44:39;;;;;;;32.08;16.80;;;4.60;99.90;;;;;;5066749;28;20205;-69
2022/01/10 14:47:06;;;;;;;27.13;15.55;;;4.50;99.90;;;;;;5073521;28;20208;-69
2022/01/10 14:49:37;;;;;;;27.98;16.55;;;4.50;99.90;;;;;;5086513;28;20236;-69
2022/01/10 14:52:05;;;;;;;24.50;13.82;;;4.60;99.90;;;;;;5086846;28;20236;-70
2022/01/10 14:54:31;;;;;;;23.48;14.93;;;4.60;99.90;;;;;;5086162;28;20205;-70
2022/01/10 14:56:58;;;;;;;30.27;15.85;;;4.50;99.90;;;;;;5066659;28;20234;-68
2022/01/10 14:59:27;;;;;;;24.27;15.40;;;4.60;99.90;;;;;;5078730;28;20523;-68
2022/01/10 15:01:54;;;;;;;28.75;17.30;;;4.60;99.90;;;;;;5072811;28;20290;-68
2022/01/10 15:04:21;;;;;;;30.10;16.02;;;4.60;99.90;;;;;;5072915;28;20208;-68
2022/01/10 15:06:48;;;;;;;29.52;14.05;;;4.60;99.90;;;;;;5066214;28;20201;-69
2022/01/10 15:09:14;;;;;;;25.25;16.20;;;4.60;99.90;;;;;;5072484;28;20685;-68
2022/01/10 15:11:41;;;;;;;25.05;15.15;;;4.60;99.90;;;;;;5072909;28;20590;-68
2022/01/10 15:14:10;;;;;;;25.00;15.15;;;4.60;99.90;;;;;;5072912;28;20212;-69
2022/01/10 15:16:39;;;;;;;24.98;15.45;;;4.50;99.90;;;;;;5072644;28;20205;-69
2022/01/10 15:19:09;;;;;;;33.47;16.70;;;4.60;99.90;;;;;;5072718;28;20297;-70
2022/01/10 15:21:40;;;;;;;27.15;15.60;;;4.60;99.90;;;;;;5072794;28;20231;-68
2022/01/10 15:24:07;;;;;;;29.33;15.13;;;4.60;99.90;;;;;;5071896;28;20205;-69
2022/01/10 15:26:33;;;;;;;27.55;14.85;;;4.60;99.90;;;;;;5052940;28;20209;-68
2022/01/10 15:29:00;;;;;;;28.02;16.00;;;4.60;99.90;;;;;;5052894;28;20229;-71
2022/01/10 15:31:27;;;;;;;32.45;16.90;;;4.60;99.90;;;;;;5057341;28;20205;-68
2022/01/10 15:33:55;;;;;;;28.60;17.45;;;4.60;99.90;;;;;;5059054;28;20306;-68
2022/01/10 15:36:21;;;;;;;24.80;15.65;;;4.60;99.90;;;;;;5069905;28;20296;-68
2022/01/10 15:38:51;;;;;;;22.10;13.88;;;4.60;99.90;;;;;;5071784;28;20212;-71
2022/01/10 15:41:18;;;;;;;28.77;14.07;;;4.60;99.90;;;;;;5067823;28;20592;-69
2022/01/10 15:43:45;;;;;;;25.02;16.42;;;4.60;99.90;;;;;;5054973;28;20653;-72
2022/01/10 15:46:11;;;;;;;28.35;16.60;;;4.60;99.90;;;;;;5064680;28;20596;-69
2022/01/10 15:48:38;;;;;;;29.17;15.68;;;4.60;99.90;;;;;;5060453;28;20228;-68
2022/01/10 15:51:07;;;;;;;30.98;17.45;;;4.60;99.90;;;;;;5054690;28;20217;-71
2022/01/10 15:53:35;;;;;;;27.40;16.10;;;4.60;99.90;;;;;;5063147;28;20316;-69
2022/01/10 15:56:02;;;;;;;29.63;17.10;;;4.60;99.90;;;;;;5064560;28;20259;-70
2022/01/10 15:58:29;;;;;;;29.27;17.33;;;4.50;99.90;;;;;;5064228;28;20214;-69
2022/01/10 16:00:56;;;;;;;28.85;16.27;;;4.50;99.90;;;;;;5067326;28;20205;-68
2022/01/10 16:03:23;;;;;;;31.02;16.30;;;4.50;99.90;;;;;;5064814;28;20229;-69
2022/01/10 16:05:50;;;;;;;27.08;16.35;;;4.50;99.90;;;;;;5064441;28;20210;-68
2022/01/10 16:08:20;;;;;;;29.35;17.50;;;4.50;99.90;;;;;;5067299;28;20231;-69
2022/01/10 16:10:49;;;;;;;28.73;16.27;;;4.60;99.90;;;;;;5055481;28;20225;-70
2022/01/10 16:13:16;;;;;;;31.65;17.65;;;4.60;99.90;;;;;;5059745;28;20225;-69
2022/01/10 16:15:44;;;;;;;32.78;16.73;;;4.60;99.90;;;;;;5070364;28;20226;-69
2022/01/10 16:18:11;;;;;;;25.60;15.70;;;4.50;99.90;;;;;;5062273;28;20263;-69
2022/01/10 16:20:37;;;;;;;27.58;17.13;;;4.50;99.90;;;;;;5063506;28;20214;-69
2022/01/10 16:23:04;;;;;;;31.35;17.33;;;4.50;99.90;;;;;;5051225;28;20275;-69
2022/01/10 16:25:32;;;;;;;29.38;16.20;;;4.50;99.90;;;;;;5066249;28;20539;-68
2022/01/10 16:27:59;;;;;;;32.20;17.02;;;4.50;99.90;;;;;;5065554;28;20248;-69
2022/01/10 16:30:27;;;;;;;28.13;16.45;;;4.50;99.90;;;;;;5068306;28;20290;-69
2022/01/10 16:32:53;;;;;;;31.25;16.58;;;4.50;99.90;;;;;;5067419;28;20233;-68
2022/01/10 16:35:20;;;;;;;32.55;16.42;;;4.60;99.90;;;;;;5057670;28;20338;-69
2022/01/10 16:37:47;;;;;;;27.52;16.92;;;4.60;99.90;;;;;;5058666;28;20209;-69
2022/01/10 16:40:14;;;;;;;26.67;16.70;;;4.60;99.90;;;;;;5078985;28;20212;-70
2022/01/10 16:42:42;;;;;;;25.60;15.82;;;4.60;99.90;;;;;;5067032;28;20221;-69
2022/01/10 16:45:10;;;;;;;27.83;17.50;;;4.60;99.90;;;;;;5063180;28;20206;-71
2022/01/10 16:47:37;;;;;;;25.92;16.20;;;4.60;99.90;;;;;;5066921;28;20201;-69
2022/01/10 16:50:06;;;;;;;28.60;16.83;;;4.60;99.90;;;;;;5061564;28;20221;-68
2022/01/10 16:52:33;;;;;;;30.15;16.40;;;4.60;99.90;;;;;;5053336;28;20607;-68
2022/01/10 16:54:59;;;;;;;28.88;18.35;;;4.60;99.90;;;;;;5057008;28;20222;-68
2022/01/10 16:57:27;;;;;;;25.20;14.75;;;4.60;99.90;;;;;;5060279;28;20263;-70
2022/01/10 16:59:57;;;;;;;25.13;15.38;;;4.60;99.90;;;;;;5060686;28;20224;-68
2022/01/10 17:02:24;;;;;;;24.38;13.98;;;4.60;99.90;;;;;;5057387;28;20240;-68
2022/01/10 17:04:51;;;;;;;28.00;15.38;;;4.60;99.90;;;;;;5059902;28;20199;-69
2022/01/10 17:07:17;;;;;;;26.55;16.30;;;4.60;99.90;;;;;;5050680;28;20214;-69
2022/01/10 17:09:48;;;;;;;28.52;16.38;;;4.50;99.90;;;;;;5050293;28;20225;-69
2022/01/10 17:12:15;;;;;;;24.58;15.43;;;4.50;99.90;;;;;;5055731;28;20244;-69
2022/01/10 17:14:43;;;;;;;24.35;14.32;;;4.50;99.90;;;;;;5070548;28;20653;-68
2022/01/10 17:17:12;;;;;;;23.40;14.30;;;4.50;99.90;;;;;;5056530;28;20201;-68
2022/01/10 17:19:41;;;;;;;27.67;15.63;;;4.50;99.90;;;;;;5069885;28;20228;-68
2022/01/10 17:22:08;;;;;;;23.67;16.38;;;4.60;99.90;;;;;;5062219;28;20315;-69
2022/01/10 17:24:34;;;;;;;25.35;15.30;;;4.60;99.90;;;;;;5058333;28;20244;-68
2022/01/10 17:27:02;;;;;;;22.17;15.60;;;4.60;99.90;;;;;;5062388;28;20213;-72
2022/01/10 17:29:29;;;;;;;26.80;15.50;;;4.60;99.90;;;;;;5057668;28;20221;-68
2022/01/10 17:31:55;;;;;;;22.23;13.70;;;4.60;99.90;;;;;;5064331;28;20258;-68
2022/01/10 17:34:23;;;;;;;22.52;13.75;;;4.60;99.90;;;;;;5058891;28;20279;-68
2022/01/10 17:36:51;;;;;;;29.88;15.75;;;4.60;99.90;;;;;;5070925;28;20301;-68
2022/01/10 17:39:18;;;;;;;34.28;19.30;;;4.60;99.90;;;;;;5062329;28;20618;-69
2022/01/10 17:41:44;;;;;;;40.47;26.02;;;4.60;99.90;;;;;;5060910;28;20252;-69
2022/01/10 17:44:11;;;;;;;35.75;24.42;;;4.60;99.90;;;;;;5049976;28;20206;-68